createdAt,value
2016-02-09T00:00:29.301Z,82.13
2016-02-09T00:01:29.303Z,82.6
2016-02-09T00:02:29.292Z,82.98
2016-02-09T00:03:29.310Z,82.79
2016-02-09T00:04:29.281Z,82.6
2016-02-09T00:05:29.285Z,82.46
2016-02-09T00:06:29.287Z,82.65
2016-02-09T00:07:29.274Z,83.22
2016-02-09T00:08:29.277Z,83.22
2016-02-09T00:09:29.280Z,83.12
2016-02-09T00:10:29.267Z,82.84
2016-02-09T00:11:29.270Z,82.65
2016-02-09T00:12:29.273Z,83.03
2016-02-09T00:13:29.260Z,83.03
2016-02-09T00:14:29.261Z,82.93
2016-02-09T00:15:29.281Z,82.93
2016-02-09T00:16:29.251Z,82.84
2016-02-09T00:17:29.254Z,83.03
2016-02-09T00:18:29.257Z,82.74
2016-02-09T00:19:29.245Z,82.84
2016-02-09T00:20:29.248Z,82.74
2016-02-09T00:21:29.251Z,82.93
2016-02-09T00:22:29.237Z,83.31
2016-02-09T00:23:29.232Z,82.78
2016-02-09T00:24:29.235Z,82.69
2016-02-09T00:25:29.223Z,82.78
2016-02-09T00:26:29.225Z,82.78
2016-02-09T00:27:29.231Z,82.88
2016-02-09T00:28:29.234Z,82.97
2016-02-09T00:29:29.220Z,82.88
2016-02-09T00:30:29.207Z,83.16
2016-02-09T00:31:29.226Z,82.78
2016-02-09T00:32:29.197Z,82.69
2016-02-09T00:33:29.200Z,82.21
2016-02-09T00:34:29.202Z,82.21
2016-02-09T00:35:29.206Z,82.21
2016-02-09T00:36:29.192Z,82.07
2016-02-09T00:37:29.195Z,81.59
2016-02-09T00:38:29.197Z,81.4
2016-02-09T00:39:29.184Z,81.02
2016-02-09T00:40:29.187Z,80.55
2016-02-09T00:41:29.177Z,80.26
2016-02-09T00:42:29.180Z,80.45
2016-02-09T00:43:29.183Z,80.45
2016-02-09T00:44:29.169Z,80.26
2016-02-09T00:45:29.173Z,80.35
2016-02-09T00:46:29.160Z,80.45
2016-02-09T00:47:29.162Z,80.13
2016-02-09T00:48:29.151Z,80.51
2016-02-09T00:49:29.154Z,80.79
2016-02-09T00:50:29.157Z,80.32
2016-02-09T00:51:29.159Z,80.22
2016-02-09T00:52:29.153Z,79.84
2016-02-09T00:53:29.139Z,79.84
2016-02-09T00:54:29.143Z,80.13
2016-02-09T00:55:29.145Z,79.94
2016-02-09T00:56:29.148Z,79.84
2016-02-09T00:57:29.151Z,79.46
2016-02-09T00:58:29.122Z,79.36
2016-02-09T00:59:29.125Z,79.94
2016-02-09T01:00:29.127Z,79.55
2016-02-09T01:01:29.130Z,79.65
2016-02-09T01:02:29.117Z,79.74
2016-02-09T01:03:29.121Z,79.74
2016-02-09T01:04:29.109Z,79.74
2016-02-09T01:05:29.111Z,79.36
2016-02-09T01:06:29.113Z,79.08
2016-02-09T01:07:29.101Z,79.17
2016-02-09T01:08:29.119Z,79.36
2016-02-09T01:09:29.106Z,79.27
2016-02-09T01:10:29.109Z,78.99
2016-02-09T01:11:29.096Z,79.17
2016-02-09T01:12:29.083Z,79.08
2016-02-09T01:13:29.101Z,78.8
2016-02-09T01:14:29.073Z,78.61
2016-02-09T01:15:29.075Z,78.7
2016-02-09T01:16:29.094Z,78.42
2016-02-09T01:17:29.082Z,78.51
2016-02-09T01:18:29.069Z,78.38
2016-02-09T01:19:29.087Z,78.47
2016-02-09T01:20:29.058Z,78.66
2016-02-09T01:21:29.061Z,79.04
2016-02-09T01:22:29.064Z,78.85
2016-02-09T01:23:29.050Z,79.61
2016-02-09T01:24:29.053Z,78.95
2016-02-09T01:25:29.041Z,79.61
2016-02-09T01:26:29.043Z,79.71
2016-02-09T01:27:29.062Z,79.52
2016-02-09T01:28:29.033Z,79.9
2016-02-09T01:29:29.035Z,79.61
2016-02-09T01:30:29.040Z,79.71
2016-02-09T01:31:29.028Z,79.8
2016-02-09T01:32:29.031Z,79.52
2016-02-09T01:33:29.033Z,79.42
2016-02-09T01:34:29.020Z,79.61
2016-02-09T01:35:29.023Z,79.52
2016-02-09T01:36:29.042Z,79.33
2016-02-09T01:37:29.012Z,79.9
2016-02-09T01:38:29.015Z,79.8
2016-02-09T01:39:29.004Z,79.8
2016-02-09T01:40:29.021Z,79.9
2016-02-09T01:41:29.009Z,79.9
2016-02-09T01:42:29.011Z,79.9
2016-02-09T01:43:28.998Z,79.8
2016-02-09T01:44:28.986Z,79.42
2016-02-09T01:45:28.989Z,79.42
2016-02-09T01:46:29.008Z,79.33
2016-02-09T01:47:28.995Z,79.33
2016-02-09T01:48:28.983Z,79.99
2016-02-09T01:49:28.986Z,79.33
2016-02-09T01:50:28.972Z,79.33
2016-02-09T01:51:28.974Z,79.52
2016-02-09T01:52:28.980Z,79.33
2016-02-09T01:53:28.968Z,79.46
2016-02-09T01:54:28.955Z,79.99
2016-02-09T01:55:28.964Z,79.8
2016-02-09T01:56:28.966Z,79.9
2016-02-09T01:57:28.952Z,79.84
2016-02-09T01:58:28.956Z,79.52
2016-02-09T01:59:28.958Z,79.33
2016-02-09T02:00:28.947Z,79.84
2016-02-09T02:01:28.935Z,79.27
2016-02-09T02:02:28.968Z,79.17
2016-02-09T02:03:28.940Z,79.36
2016-02-09T02:04:28.927Z,79.9
2016-02-09T02:05:28.930Z,79.9
2016-02-09T02:06:28.948Z,79.71
2016-02-09T02:07:28.919Z,79.9
2016-02-09T02:08:28.922Z,80.18
2016-02-09T02:09:28.924Z,80.37
2016-02-09T02:10:28.912Z,80.46
2016-02-09T02:11:28.915Z,80.27
2016-02-09T02:12:28.917Z,80.18
2016-02-09T02:13:28.905Z,80.84
2016-02-09T02:14:28.908Z,80.56
2016-02-09T02:15:28.912Z,81.04
2016-02-09T02:16:28.899Z,81.13
2016-02-09T02:17:28.886Z,80.94
2016-02-09T02:18:28.888Z,80.84
2016-02-09T02:19:28.879Z,80.94
2016-02-09T02:20:28.882Z,80.65
2016-02-09T02:21:28.885Z,81.13
2016-02-09T02:22:28.873Z,81.04
2016-02-09T02:23:28.876Z,81.32
2016-02-09T02:24:28.874Z,81.32
2016-02-09T02:25:28.877Z,81.32
2016-02-09T02:26:28.864Z,81.41
2016-02-09T02:27:28.869Z,81.79
2016-02-09T02:28:28.871Z,81.6
2016-02-09T02:29:28.858Z,81.98
2016-02-09T02:30:28.861Z,81.6
2016-02-09T02:31:28.849Z,82.46
2016-02-09T02:32:28.852Z,82.27
2016-02-09T02:33:28.855Z,82.08
2016-02-09T02:34:28.841Z,82.55
2016-02-09T02:35:28.843Z,82.46
2016-02-09T02:36:28.846Z,82.46
2016-02-09T02:37:28.849Z,82.46
2016-02-09T02:38:28.836Z,82.84
2016-02-09T02:39:28.823Z,82.74
2016-02-09T02:40:28.826Z,83.12
2016-02-09T02:41:28.830Z,83.22
2016-02-09T02:42:28.833Z,83.22
2016-02-09T02:43:28.820Z,83.31
2016-02-09T02:44:28.807Z,83.03
2016-02-09T02:45:28.810Z,83.03
2016-02-09T02:46:28.797Z,83.22
2016-02-09T02:47:28.800Z,83.22
2016-02-09T02:48:28.802Z,83.4
2016-02-09T02:49:28.807Z,83.22
2016-02-09T02:50:28.794Z,83.78
2016-02-09T02:51:28.796Z,83.5
2016-02-09T02:52:28.799Z,83.4
2016-02-09T02:53:28.789Z,83.88
2016-02-09T02:54:28.775Z,83.97
2016-02-09T02:55:28.779Z,83.69
2016-02-09T02:56:28.781Z,83.69
2016-02-09T02:57:28.784Z,83.5
2016-02-09T02:58:28.770Z,83.88
2016-02-09T02:59:28.773Z,83.97
2016-02-09T03:00:28.761Z,83.4
2016-02-09T03:01:28.764Z,83.97
2016-02-09T03:02:28.750Z,83.78
2016-02-09T03:03:28.755Z,84.17
2016-02-09T03:04:28.742Z,84.07
2016-02-09T03:05:28.745Z,84.17
2016-02-09T03:06:28.747Z,83.64
2016-02-09T03:07:28.750Z,83.83
2016-02-09T03:08:28.752Z,83.73
2016-02-09T03:09:28.740Z,83.73
2016-02-09T03:10:28.727Z,83.73
2016-02-09T03:11:28.730Z,84.01
2016-02-09T03:12:28.733Z,83.54
2016-02-09T03:13:28.721Z,83.73
2016-02-09T03:14:28.724Z,83.36
2016-02-09T03:15:28.726Z,83.16
2016-02-09T03:16:28.730Z,83.07
2016-02-09T03:17:28.717Z,83.26
2016-02-09T03:18:28.720Z,83.36
2016-02-09T03:19:28.706Z,82.97
2016-02-09T03:20:28.710Z,83.07
2016-02-09T03:21:28.713Z,83.01
2016-02-09T03:22:28.703Z,82.64
2016-02-09T03:23:28.690Z,82.73
2016-02-09T03:24:28.693Z,81.93
2016-02-09T03:25:28.680Z,82.07
2016-02-09T03:26:28.683Z,82.26
2016-02-09T03:27:28.686Z,82.07
2016-02-09T03:28:28.674Z,81.68
2016-02-09T03:29:28.676Z,81.87
2016-02-09T03:30:28.679Z,81.49
2016-02-09T03:31:28.681Z,81.78
2016-02-09T03:32:28.668Z,81.21
2016-02-09T03:33:28.671Z,81.3
2016-02-09T03:34:28.674Z,81.59
2016-02-09T03:35:28.660Z,81.4
2016-02-09T03:36:28.663Z,81.02
2016-02-09T03:37:28.666Z,81.02
2016-02-09T03:38:28.655Z,81.17
2016-02-09T03:39:28.658Z,80.74
2016-02-09T03:40:28.676Z,80.64
2016-02-09T03:41:28.631Z,80.64
2016-02-09T03:42:28.634Z,80.88
2016-02-09T03:43:28.637Z,81.02
2016-02-09T03:44:28.640Z,81.02
2016-02-09T03:45:28.628Z,80.98
2016-02-09T03:46:28.618Z,81.12
2016-02-09T03:47:28.621Z,81.02
2016-02-09T03:48:28.640Z,80.88
2016-02-09T03:49:28.611Z,80.88
2016-02-09T03:50:28.616Z,80.6
2016-02-09T03:51:28.619Z,80.69
2016-02-09T03:52:28.607Z,80.98
2016-02-09T03:53:28.609Z,81.17
2016-02-09T03:54:28.612Z,80.98
2016-02-09T03:55:28.598Z,81.55
2016-02-09T03:56:28.601Z,81.26
2016-02-09T03:57:28.589Z,81.36
2016-02-09T03:58:28.591Z,81.17
2016-02-09T03:59:28.594Z,81.17
2016-02-09T04:00:28.586Z,81.17
2016-02-09T04:01:28.588Z,81.17
2016-02-09T04:02:28.575Z,81.55
2016-02-09T04:03:28.577Z,81.26
2016-02-09T04:04:28.580Z,81.07
2016-02-09T04:05:28.567Z,81.65
2016-02-09T04:06:28.570Z,81.36
2016-02-09T04:07:28.554Z,81.55
2016-02-09T04:08:28.559Z,82.03
2016-02-09T04:09:28.562Z,81.84
2016-02-09T04:10:28.549Z,81.55
2016-02-09T04:11:28.551Z,81.7
2016-02-09T04:12:28.554Z,81.51
2016-02-09T04:13:28.556Z,81.79
2016-02-09T04:14:28.548Z,82.55
2016-02-09T04:15:28.551Z,82.36
2016-02-09T04:16:28.553Z,82.36
2016-02-09T04:17:28.540Z,82.08
2016-02-09T04:18:28.527Z,82.27
2016-02-09T04:19:28.530Z,82.17
2016-02-09T04:20:28.517Z,82.55
2016-02-09T04:21:28.365Z,82.55
2016-02-09T04:22:28.539Z,82.55
2016-02-09T04:23:28.511Z,82.17
2016-02-09T04:24:28.513Z,82.27
2016-02-09T04:25:28.500Z,82.84
2016-02-09T04:26:28.535Z,82.84
2016-02-09T04:27:28.492Z,82.93
2016-02-09T04:28:28.495Z,83.12
2016-02-09T04:29:28.498Z,82.65
2016-02-09T04:30:28.485Z,82.74
2016-02-09T04:31:28.487Z,83.22
2016-02-09T04:32:28.490Z,83.12
2016-02-09T04:33:28.493Z,83.31
2016-02-09T04:34:28.481Z,83.22
2016-02-09T04:35:28.483Z,83.12
2016-02-09T04:36:28.471Z,83.31
2016-02-09T04:37:28.458Z,83.03
2016-02-09T04:38:28.461Z,83.22
2016-02-09T04:39:28.463Z,83.69
2016-02-09T04:40:28.466Z,83.4
2016-02-09T04:41:28.454Z,83.88
2016-02-09T04:42:28.456Z,83.5
2016-02-09T04:43:28.459Z,83.69
2016-02-09T04:44:28.446Z,83.69
2016-02-09T04:45:28.449Z,83.69
2016-02-09T04:46:28.436Z,83.69
2016-02-09T04:47:28.439Z,83.59
2016-02-09T04:48:28.441Z,83.59
2016-02-09T04:49:28.430Z,83.97
2016-02-09T04:50:28.433Z,83.69
2016-02-09T04:51:28.438Z,83.88
2016-02-09T04:52:28.425Z,83.88
2016-02-09T04:53:28.428Z,83.59
2016-02-09T04:54:28.430Z,83.97
2016-02-09T04:55:28.417Z,83.69
2016-02-09T04:56:28.420Z,84.07
2016-02-09T04:57:28.424Z,83.5
2016-02-09T04:58:28.411Z,83.69
2016-02-09T04:59:28.398Z,83.69
2016-02-09T05:00:28.401Z,83.73
2016-02-09T05:01:28.403Z,83.45
2016-02-09T05:02:28.390Z,83.73
2016-02-09T05:03:28.393Z,83.26
2016-02-09T05:04:28.397Z,83.16
2016-02-09T05:05:28.384Z,82.78
2016-02-09T05:06:28.387Z,82.69
2016-02-09T05:07:28.389Z,82.97
2016-02-09T05:08:28.376Z,83.16
2016-02-09T05:09:28.379Z,82.59
2016-02-09T05:10:28.382Z,82.4
2016-02-09T05:11:28.370Z,82.59
2016-02-09T05:12:28.404Z,82.31
2016-02-09T05:13:28.375Z,82.21
2016-02-09T05:14:28.363Z,81.65
2016-02-09T05:15:28.349Z,81.93
2016-02-09T05:16:28.367Z,81.55
2016-02-09T05:17:28.339Z,81.12
2016-02-09T05:18:28.342Z,80.79
2016-02-09T05:19:28.345Z,80.93
2016-02-09T05:20:28.347Z,80.74
2016-02-09T05:21:28.334Z,80.26
2016-02-09T05:22:28.327Z,80.55
2016-02-09T05:23:28.331Z,79.41
2016-02-09T05:24:28.333Z,79.79
2016-02-09T05:25:28.321Z,79.88
2016-02-09T05:26:28.323Z,78.83
2016-02-09T05:27:28.310Z,79.03
2016-02-09T05:28:28.329Z,79.31
2016-02-09T05:29:28.332Z,79.12
2016-02-09T05:30:28.315Z,78.74
2016-02-09T05:31:28.302Z,78.64
2016-02-09T05:32:28.304Z,78.45
2016-02-09T05:33:28.295Z,78.55
2016-02-09T05:34:28.297Z,78.83
2016-02-09T05:35:28.300Z,78.17
2016-02-09T05:36:28.286Z,78.36
2016-02-09T05:37:28.274Z,78.36
2016-02-09T05:38:28.277Z,78.36
2016-02-09T05:39:28.294Z,77.79
2016-02-09T05:40:28.297Z,78.27
2016-02-09T05:41:28.269Z,77.7
2016-02-09T05:42:28.272Z,78.08
2016-02-09T05:43:28.274Z,78.08
2016-02-09T05:44:28.261Z,77.51
2016-02-09T05:45:28.263Z,77.6
2016-02-09T05:46:28.251Z,77.6
2016-02-09T05:47:28.257Z,77.7
2016-02-09T05:48:28.259Z,77.79
2016-02-09T05:49:28.245Z,77.12
2016-02-09T05:50:28.248Z,77.03
2016-02-09T05:51:28.234Z,77.12
2016-02-09T05:52:28.270Z,77.31
2016-02-09T05:53:28.242Z,77.31
2016-02-09T05:54:28.230Z,77.12
2016-02-09T05:55:28.232Z,77.12
2016-02-09T05:56:28.219Z,77.22
2016-02-09T05:57:28.222Z,77.03
2016-02-09T05:58:28.225Z,77.12
2016-02-09T05:59:28.227Z,76.84
2016-02-09T06:00:28.215Z,76.93
2016-02-09T06:01:28.203Z,76.75
2016-02-09T06:02:28.220Z,77.22
2016-02-09T06:03:28.208Z,76.75
2016-02-09T06:04:28.211Z,76.84
2016-02-09T06:05:28.198Z,77.12
2016-02-09T06:06:28.200Z,77.03
2016-02-09T06:07:28.192Z,77.41
2016-02-09T06:08:28.195Z,77.41
2016-02-09T06:09:28.198Z,77.31
2016-02-09T06:10:28.186Z,77.31
2016-02-09T06:11:28.189Z,77.31
2016-02-09T06:12:28.175Z,77.03
2016-02-09T06:13:28.194Z,77.12
2016-02-09T06:14:28.166Z,77.12
2016-02-09T06:15:28.169Z,76.93
2016-02-09T06:16:28.172Z,76.84
2016-02-09T06:17:28.196Z,76.93
2016-02-09T06:18:28.152Z,76.84
2016-02-09T06:19:28.156Z,76.65
2016-02-09T06:20:28.174Z,76.18
2016-02-09T06:21:28.152Z,76.56
2016-02-09T06:22:28.155Z,76.46
2016-02-09T06:23:28.158Z,76.56
2016-02-09T06:24:28.146Z,76.75
2016-02-09T06:25:28.148Z,76.75
2016-02-09T06:26:28.156Z,76.18
2016-02-09T06:27:28.142Z,76.46
2016-02-09T06:28:28.145Z,75.99
2016-02-09T06:29:28.117Z,76.08
2016-02-09T06:30:28.137Z,75.99
2016-02-09T06:31:28.124Z,76.75
2016-02-09T06:32:28.111Z,76.46
2016-02-09T06:33:28.130Z,76.56
2016-02-09T06:34:28.117Z,76.65
2016-02-09T06:35:28.103Z,76.84
2016-02-09T06:36:28.107Z,76.84
2016-02-09T06:37:28.110Z,76.75
2016-02-09T06:38:28.097Z,77.03
2016-02-09T06:39:28.099Z,76.84
2016-02-09T06:40:28.103Z,77.31
2016-02-09T06:41:28.089Z,77.03
2016-02-09T06:42:28.108Z,77.03
2016-02-09T06:43:28.079Z,77.41
2016-02-09T06:44:28.082Z,77.03
2016-02-09T06:45:28.101Z,77.03
2016-02-09T06:46:28.088Z,77.12
2016-02-09T06:47:28.075Z,77.22
2016-02-09T06:48:28.093Z,77.22
2016-02-09T06:49:27.909Z,76.93
2016-02-09T06:50:28.054Z,77.03
2016-02-09T06:51:28.074Z,77.12
2016-02-09T06:52:28.061Z,77.22
2016-02-09T06:53:28.052Z,77.31
2016-02-09T06:54:28.055Z,77.7
2016-02-09T06:55:28.058Z,77.89
2016-02-09T06:56:28.061Z,77.6
2016-02-09T06:57:28.048Z,77.41
2016-02-09T06:58:28.037Z,77.41
2016-02-09T06:59:28.039Z,77.7
2016-02-09T07:00:28.043Z,77.41
2016-02-09T07:01:28.030Z,78.17
2016-02-09T07:02:28.033Z,77.89
2016-02-09T07:03:28.035Z,77.79
2016-02-09T07:04:28.038Z,77.89
2016-02-09T07:05:28.031Z,77.7
2016-02-09T07:06:28.017Z,77.89
2016-02-09T07:07:28.006Z,78.27
2016-02-09T07:08:28.023Z,78.17
2016-02-09T07:09:28.011Z,78.17
2016-02-09T07:10:28.013Z,78.27
2016-02-09T07:11:28.004Z,78.13
2016-02-09T07:12:28.006Z,78.27
2016-02-09T07:13:27.994Z,78.8
2016-02-09T07:14:27.996Z,78.45
2016-02-09T07:15:27.983Z,78.55
2016-02-09T07:16:27.987Z,78.51
2016-02-09T07:17:28.004Z,78.55
2016-02-09T07:18:27.992Z,78.55
2016-02-09T07:19:27.979Z,78.64
2016-02-09T07:20:27.981Z,78.55
2016-02-09T07:21:27.984Z,78.36
2016-02-09T07:22:27.972Z,78.64
2016-02-09T07:23:27.974Z,78.83
2016-02-09T07:24:27.966Z,78.83
2016-02-09T07:25:27.969Z,78.93
2016-02-09T07:26:27.971Z,78.74
2016-02-09T07:27:27.974Z,78.64
2016-02-09T07:28:27.946Z,78.55
2016-02-09T07:29:27.963Z,78.64
2016-02-09T07:30:27.951Z,78.55
2016-02-09T07:31:27.954Z,78.55
2016-02-09T07:32:27.940Z,78.55
2016-02-09T07:33:27.944Z,78.45
2016-02-09T07:34:27.931Z,78.55
2016-02-09T07:35:27.934Z,78.74
2016-02-09T07:36:27.936Z,78.74
2016-02-09T07:37:27.924Z,78.45
2016-02-09T07:38:27.927Z,78.64
2016-02-09T07:39:27.930Z,79.12
2016-02-09T07:40:27.933Z,79.22
2016-02-09T07:41:27.903Z,79.03
2016-02-09T07:42:27.923Z,79.03
2016-02-09T07:43:27.926Z,79.31
2016-02-09T07:44:27.898Z,79.41
2016-02-09T07:45:27.915Z,79.12
2016-02-09T07:46:27.934Z,79.41
2016-02-09T07:47:27.893Z,79.41
2016-02-09T07:48:27.895Z,79.41
2016-02-09T07:49:27.899Z,79.12
2016-02-09T07:50:27.885Z,79.12
2016-02-09T07:51:27.887Z,79.41
2016-02-09T07:52:27.890Z,79.41
2016-02-09T07:53:27.880Z,79.6
2016-02-09T07:54:27.866Z,79.22
2016-02-09T07:55:27.871Z,78.93
2016-02-09T07:56:27.874Z,79.41
2016-02-09T07:57:27.876Z,79.12
2016-02-09T07:58:27.864Z,79.12
2016-02-09T07:59:27.866Z,78.83
2016-02-09T08:00:27.853Z,79.12
2016-02-09T08:01:27.859Z,79.22
2016-02-09T08:02:27.845Z,79.22
2016-02-09T08:03:27.849Z,79.12
2016-02-09T08:04:27.851Z,79.22
2016-02-09T08:05:27.854Z,78.93
2016-02-09T08:06:27.842Z,78.83
2016-02-09T08:07:27.844Z,78.45
2016-02-09T08:08:27.847Z,78.36
2016-02-09T08:09:27.836Z,78.55
2016-02-09T08:10:27.822Z,78.55
2016-02-09T08:11:27.825Z,78.5
2016-02-09T08:12:27.844Z,78.83
2016-02-09T08:13:27.816Z,78.17
2016-02-09T08:14:27.806Z,78.11
2016-02-09T08:15:27.825Z,78.3
2016-02-09T08:16:27.811Z,78.21
2016-02-09T08:17:27.803Z,77.73
2016-02-09T08:18:27.805Z,78.02
2016-02-09T08:19:27.807Z,77.55
2016-02-09T08:20:27.796Z,77.73
2016-02-09T08:21:27.800Z,77.55
2016-02-09T08:22:27.803Z,77.07
2016-02-09T08:23:27.793Z,77.36
2016-02-09T08:24:27.795Z,76.88
2016-02-09T08:25:27.781Z,76.97
2016-02-09T08:26:27.785Z,76.59
2016-02-09T08:27:27.772Z,76.31
2016-02-09T08:28:27.775Z,76.4
2016-02-09T08:29:27.778Z,76.12
2016-02-09T08:30:27.764Z,76.4
2016-02-09T08:31:27.771Z,76.5
2016-02-09T08:32:27.774Z,76.5
2016-02-09T08:33:27.777Z,76.69
2016-02-09T08:34:27.763Z,76.59
2016-02-09T08:35:27.781Z,76.5
2016-02-09T08:36:27.754Z,76.69
2016-02-09T08:37:27.756Z,76.5
2016-02-09T08:38:27.742Z,76.4
2016-02-09T08:39:27.746Z,76.59
2016-02-09T08:40:27.746Z,76.21
2016-02-09T08:41:27.720Z,76.03
2016-02-09T08:42:27.710Z,75.64
2016-02-09T08:43:27.715Z,75.84
2016-02-09T08:44:27.675Z,75.74
2016-02-09T08:45:27.668Z,75.93
2016-02-09T08:46:27.666Z,75.93
2016-02-09T08:47:27.649Z,76.03
2016-02-09T08:48:27.646Z,75.45
2016-02-09T08:49:27.645Z,75.84
2016-02-09T08:50:27.676Z,75.93
2016-02-09T08:51:27.631Z,75.84
2016-02-09T08:52:27.616Z,76.31
2016-02-09T08:53:27.619Z,76.31
2016-02-09T08:54:27.620Z,76.21
2016-02-09T08:55:27.622Z,75.93
2016-02-09T08:56:27.608Z,76.12
2016-02-09T08:57:27.610Z,76.5
2016-02-09T08:58:27.601Z,76.69
2016-02-09T08:59:27.602Z,76.69
2016-02-09T09:00:27.605Z,76.4
2016-02-09T09:01:27.592Z,76.69
2016-02-09T09:02:27.578Z,76.69
2016-02-09T09:03:27.597Z,76.69
2016-02-09T09:04:27.583Z,76.59
2016-02-09T09:05:27.585Z,76.59
2016-02-09T09:06:27.572Z,76.31
2016-02-09T09:07:27.591Z,76.59
2016-02-09T09:08:27.578Z,76.59
2016-02-09T09:09:27.566Z,76.59
2016-02-09T09:10:27.569Z,76.59
2016-02-09T09:11:27.556Z,76.59
2016-02-09T09:12:27.558Z,76.4
2016-02-09T09:13:27.561Z,76.88
2016-02-09T09:14:27.565Z,76.5
2016-02-09T09:15:27.554Z,76.88
2016-02-09T09:16:27.556Z,77.17
2016-02-09T09:17:27.559Z,77.26
2016-02-09T09:18:27.552Z,77.07
2016-02-09T09:19:27.538Z,77.07
2016-02-09T09:20:27.560Z,77.07
2016-02-09T09:21:27.546Z,77.07
2016-02-09T09:22:27.534Z,76.78
2016-02-09T09:23:27.536Z,77.73
2016-02-09T09:24:27.538Z,77.64
2016-02-09T09:25:27.527Z,78.02
2016-02-09T09:26:27.529Z,78.02
2016-02-09T09:27:27.547Z,77.64
2016-02-09T09:28:27.520Z,78.21
2016-02-09T09:29:27.508Z,78.4
2016-02-09T09:30:27.526Z,78.21
2016-02-09T09:31:27.513Z,78.88
2016-02-09T09:32:27.516Z,78.59
2016-02-09T09:33:27.519Z,78.69
2016-02-09T09:34:27.506Z,78.78
2016-02-09T09:35:27.494Z,78.69
2016-02-09T09:36:27.512Z,78.88
2016-02-09T09:37:27.498Z,79.06
2016-02-09T09:38:27.487Z,79.44
2016-02-09T09:39:27.489Z,79.44
2016-02-09T09:40:27.506Z,79.16
2016-02-09T09:41:27.478Z,79.92
2016-02-09T09:42:27.482Z,79.92
2016-02-09T09:43:27.501Z,79.44
2016-02-09T09:44:27.487Z,79.79
2016-02-09T09:45:27.474Z,80.26
2016-02-09T09:46:27.477Z,80.58
2016-02-09T09:47:27.495Z,80.49
2016-02-09T09:48:27.462Z,80.58
2016-02-09T09:49:27.480Z,80.77
2016-02-09T09:50:27.482Z,81.16
2016-02-09T09:51:27.469Z,80.87
2016-02-09T09:52:27.456Z,80.96
2016-02-09T09:53:27.459Z,81.06
2016-02-09T09:54:27.446Z,81.54
2016-02-09T09:55:27.449Z,81.44
2016-02-09T09:56:27.437Z,81.63
2016-02-09T09:57:27.455Z,81.54
2016-02-09T09:58:27.443Z,81.63
2016-02-09T09:59:27.429Z,81.63
2016-02-09T10:00:27.431Z,81.54
2016-02-09T10:01:27.434Z,81.54
2016-02-09T10:02:27.437Z,81.54
2016-02-09T10:03:27.424Z,81.54
2016-02-09T10:04:27.286Z,81.63
2016-02-09T10:05:27.430Z,81.54
2016-02-09T10:06:27.417Z,81.44
2016-02-09T10:07:27.435Z,81.44
2016-02-09T10:08:27.406Z,81.21
2016-02-09T10:09:27.409Z,81.44
2016-02-09T10:10:27.411Z,81.4
2016-02-09T10:11:27.414Z,81.49
2016-02-09T10:12:27.402Z,81.68
2016-02-09T10:13:27.404Z,81.4
2016-02-09T10:14:27.391Z,82.16
2016-02-09T10:15:27.393Z,81.87
2016-02-09T10:16:27.397Z,81.68
2016-02-09T10:17:27.384Z,81.97
2016-02-09T10:18:27.387Z,82.54
2016-02-09T10:19:27.394Z,82.54
2016-02-09T10:20:27.381Z,82.45
2016-02-09T10:21:27.383Z,82.58
2016-02-09T10:22:27.369Z,82.49
2016-02-09T10:23:27.372Z,82.29
2016-02-09T10:24:27.375Z,82.29
2016-02-09T10:25:27.378Z,82.01
2016-02-09T10:26:27.365Z,81.82
2016-02-09T10:27:27.352Z,82.01
2016-02-09T10:28:27.355Z,81.82
2016-02-09T10:29:27.361Z,82.01
2016-02-09T10:30:27.348Z,82.2
2016-02-09T10:31:27.351Z,81.48
2016-02-09T10:32:27.354Z,81.77
2016-02-09T10:33:27.341Z,81.67
2016-02-09T10:34:27.344Z,81.48
2016-02-09T10:35:27.362Z,81.38
2016-02-09T10:36:27.349Z,81.48
2016-02-09T10:37:27.336Z,81.29
2016-02-09T10:38:27.339Z,81.01
2016-02-09T10:39:27.326Z,80.91
2016-02-09T10:40:27.328Z,81.1
2016-02-09T10:41:27.330Z,80.82
2016-02-09T10:42:27.334Z,80.34
2016-02-09T10:43:27.321Z,80.53
2016-02-09T10:44:27.323Z,80.34
2016-02-09T10:45:27.329Z,80.34
2016-02-09T10:46:27.315Z,80.34
2016-02-09T10:47:27.318Z,80.34
2016-02-09T10:48:27.321Z,80.44
2016-02-09T10:49:27.292Z,80.15
2016-02-09T10:50:27.311Z,80.47
2016-02-09T10:51:27.309Z,80.1
2016-02-09T10:52:27.295Z,80.19
2016-02-09T10:53:27.298Z,80.1
2016-02-09T10:54:27.301Z,79.81
2016-02-09T10:55:27.287Z,79.52
2016-02-09T10:56:27.290Z,79.52
2016-02-09T10:57:27.293Z,79.94
2016-02-09T10:58:27.280Z,79.28
2016-02-09T10:59:27.283Z,79.57
2016-02-09T11:00:27.286Z,79.19
2016-02-09T11:01:27.289Z,78.9
2016-02-09T11:02:27.276Z,78.99
2016-02-09T11:03:27.279Z,78.23
2016-02-09T11:04:27.282Z,77.89
2016-02-09T11:05:27.268Z,77.61
2016-02-09T11:06:27.271Z,77.51
2016-02-09T11:07:27.274Z,77.51
2016-02-09T11:08:27.262Z,77.03
2016-02-09T11:09:27.265Z,76.65
2016-02-09T11:10:27.255Z,75.79
2016-02-09T11:11:27.258Z,75.42
2016-02-09T11:12:27.261Z,75.04
2016-02-09T11:13:27.248Z,75.23
2016-02-09T11:14:27.250Z,74.75
2016-02-09T11:15:27.239Z,74.65
2016-02-09T11:16:27.241Z,74.84
2016-02-09T11:17:27.243Z,74.37
2016-02-09T11:18:27.234Z,73.7
2016-02-09T11:19:27.236Z,73.22
2016-02-09T11:20:27.239Z,72.94
2016-02-09T11:21:27.228Z,72.75
2016-02-09T11:22:27.231Z,72.56
2016-02-09T11:23:27.234Z,72.17
2016-02-09T11:24:27.221Z,71.8
2016-02-09T11:25:27.240Z,71.32
2016-02-09T11:26:27.227Z,70.94
2016-02-09T11:27:27.214Z,70.5
2016-02-09T11:28:27.216Z,70.02
2016-02-09T11:29:27.221Z,70.02
2016-02-09T11:30:27.208Z,69.54
2016-02-09T11:31:27.212Z,69.54
2016-02-09T11:32:27.214Z,69.17
2016-02-09T11:33:27.201Z,68.88
2016-02-09T11:34:27.203Z,68.5
2016-02-09T11:35:27.206Z,68.21
2016-02-09T11:36:27.193Z,68.02
2016-02-09T11:37:27.195Z,68.02
2016-02-09T11:38:27.200Z,68.02
2016-02-09T11:39:27.203Z,67.26
2016-02-09T11:40:27.191Z,67.29
2016-02-09T11:41:27.193Z,67
2016-02-09T11:42:27.196Z,66.82
2016-02-09T11:43:27.183Z,66.05
2016-02-09T11:44:27.186Z,66.05
2016-02-09T11:45:27.188Z,66.24
2016-02-09T11:46:27.178Z,65.86
2016-02-09T11:47:27.180Z,64.81
2016-02-09T11:48:27.183Z,64.28
2016-02-09T11:49:27.186Z,64.37
2016-02-09T11:50:27.188Z,63.99
2016-02-09T11:51:27.182Z,63.89
2016-02-09T11:52:27.185Z,64.18
2016-02-09T11:53:27.172Z,64.18
2016-02-09T11:54:27.162Z,63.8
2016-02-09T11:55:27.165Z,63.8
2016-02-09T11:56:27.168Z,64.24
2016-02-09T11:57:27.155Z,64.15
2016-02-09T11:58:27.158Z,63.86
2016-02-09T11:59:27.161Z,64.43
2016-02-09T12:00:27.148Z,64.34
2016-02-09T12:01:27.150Z,64.87
2016-02-09T12:02:27.156Z,65.07
2016-02-09T12:03:27.143Z,65.45
2016-02-09T12:04:27.145Z,65.73
2016-02-09T12:05:27.154Z,65.89
2016-02-09T12:06:27.141Z,65.99
2016-02-09T12:07:27.144Z,66.37
2016-02-09T12:08:27.146Z,66.56
2016-02-09T12:09:27.134Z,66.18
2016-02-09T12:10:27.137Z,66.81
2016-02-09T12:11:27.142Z,66.72
2016-02-09T12:12:27.145Z,66.56
2016-02-09T12:13:27.132Z,66.91
2016-02-09T12:14:27.119Z,66.91
2016-02-09T12:15:27.122Z,66.62
2016-02-09T12:16:27.125Z,66.14
2016-02-09T12:17:27.112Z,66.53
2016-02-09T12:18:27.114Z,66.14
2016-02-09T12:19:27.117Z,66.62
2016-02-09T12:20:27.120Z,66.62
2016-02-09T12:21:27.128Z,66.81
2016-02-09T12:22:27.116Z,66.53
2016-02-09T12:23:27.102Z,66.72
2016-02-09T12:24:27.121Z,66.91
2016-02-09T12:25:27.107Z,67
2016-02-09T12:26:27.110Z,67.1
2016-02-09T12:27:27.101Z,67.57
2016-02-09T12:28:27.103Z,67.29
2016-02-09T12:29:27.090Z,67.76
2016-02-09T12:30:27.097Z,67.76
2016-02-09T12:31:27.083Z,68.05
2016-02-09T12:32:26.930Z,67.76
2016-02-09T12:33:27.090Z,68.24
2016-02-09T12:34:27.092Z,68.15
2016-02-09T12:35:27.094Z,67.57
2016-02-09T12:36:27.083Z,68.24
2016-02-09T12:37:27.085Z,68.24
2016-02-09T12:38:27.072Z,68.43
2016-02-09T12:39:27.074Z,67.95
2016-02-09T12:40:27.077Z,68.15
2016-02-09T12:41:27.096Z,68.33
2016-02-09T12:42:27.082Z,68.43
2016-02-09T12:43:27.070Z,68.52
2016-02-09T12:44:27.073Z,68.43
2016-02-09T12:45:27.060Z,68.81
2016-02-09T12:46:27.063Z,69
2016-02-09T12:47:26.909Z,69
2016-02-09T12:48:27.052Z,68.81
2016-02-09T12:49:27.055Z,68.71
2016-02-09T12:50:27.059Z,68.62
2016-02-09T12:51:27.062Z,69.44
2016-02-09T12:52:27.049Z,69.63
2016-02-09T12:53:27.052Z,69.29
2016-02-09T12:54:27.055Z,69.44
2016-02-09T12:55:27.043Z,69.82